createdAt,value
2018-11-07T00:00:58.550Z,99.99
2018-11-07T00:01:58.575Z,99.99
2018-11-07T00:02:58.751Z,99.99
2018-11-07T00:03:58.617Z,99.99
2018-11-07T00:04:58.621Z,99.99
2018-11-07T00:05:58.653Z,99.99
2018-11-07T00:06:58.672Z,99.99
2018-11-07T00:07:58.894Z,99.99
2018-11-07T00:08:58.695Z,99.99
2018-11-07T00:09:58.727Z,99.99
2018-11-07T00:10:58.733Z,99.99
2018-11-07T00:11:58.746Z,99.99
2018-11-07T00:12:58.765Z,99.99
2018-11-07T00:14:58.546Z,99.99
2018-11-07T00:15:58.837Z,99.99
2018-11-07T00:16:58.592Z,99.99
2018-11-07T00:17:58.854Z,99.99
2018-11-07T00:18:58.886Z,99.99
2018-11-07T00:19:58.891Z,99.99
2018-11-07T00:20:58.928Z,99.99
2018-11-07T00:21:58.930Z,99.99
2018-11-07T00:22:58.963Z,99.99
2018-11-07T00:24:58.991Z,99.99
2018-11-07T00:25:58.998Z,99.99
2018-11-07T00:26:59.019Z,99.99
2018-11-07T00:28:13.702Z,99.99
2018-11-07T00:28:59.058Z,99.99
2018-11-07T00:29:59.205Z,99.99
2018-11-07T00:30:59.109Z,99.99
2018-11-07T00:31:58.856Z,99.99
2018-11-07T00:32:59.127Z,99.99
2018-11-07T00:33:58.886Z,99.99
2018-11-07T00:34:59.326Z,99.99
2018-11-07T00:35:59.182Z,99.99
2018-11-07T00:36:58.952Z,99.99
2018-11-07T00:37:59.223Z,99.99
2018-11-07T00:38:59.244Z,99.99
2018-11-07T00:39:59.274Z,99.99
2018-11-07T00:40:59.291Z,99.99
2018-11-07T00:41:59.290Z,99.99
2018-11-07T00:42:59.326Z,99.99
2018-11-07T00:44:13.989Z,99.99
2018-11-07T00:44:59.346Z,99.99
2018-11-07T00:45:59.379Z,99.99
2018-11-07T00:46:59.403Z,99.99
2018-11-07T00:47:59.417Z,99.99
2018-11-07T00:48:59.416Z,99.99
2018-11-07T00:49:59.462Z,99.99
2018-11-07T00:50:59.454Z,99.99
2018-11-07T00:51:59.483Z,99.99
2018-11-07T00:52:59.238Z,99.99
2018-11-07T00:53:59.506Z,99.99
2018-11-07T00:54:59.531Z,99.99
2018-11-07T00:55:59.300Z,99.99
2018-11-07T00:56:59.565Z,99.99
2018-11-07T00:57:59.759Z,99.99
2018-11-07T00:58:59.616Z,99.99
2018-11-07T01:00:14.283Z,99.99
2018-11-07T01:00:59.381Z,99.99
2018-11-07T01:01:59.396Z,99.99
2018-11-07T01:02:59.696Z,99.99
2018-11-07T01:03:59.429Z,99.99
2018-11-07T01:04:59.724Z,99.99
2018-11-07T01:05:59.743Z,99.99
2018-11-07T01:06:59.486Z,99.99
2018-11-07T01:07:59.521Z,99.99
2018-11-07T01:08:59.536Z,99.99
2018-11-07T01:10:59.829Z,99.99
2018-11-07T01:11:59.834Z,99.99
2018-11-07T01:12:59.606Z,99.99
2018-11-07T01:13:59.869Z,99.99
2018-11-07T01:14:59.904Z,99.99
2018-11-07T01:16:14.566Z,99.99
2018-11-07T01:16:59.945Z,99.99
2018-11-07T01:17:59.942Z,99.99
2018-11-07T01:18:59.703Z,99.99
2018-11-07T01:19:59.998Z,99.99
2018-11-07T01:22:00.031Z,99.99
2018-11-07T01:23:00.032Z,99.99
2018-11-07T01:24:00.068Z,99.99
2018-11-07T01:25:00.073Z,99.99
2018-11-07T01:27:00.116Z,99.99
2018-11-07T01:27:59.916Z,99.99
2018-11-07T01:29:00.158Z,99.99
2018-11-07T01:30:00.165Z,99.99
2018-11-07T01:31:14.842Z,99.99
2018-11-07T01:32:00.199Z,99.99
2018-11-07T01:33:00.214Z,99.99
2018-11-07T01:34:00.251Z,99.99
2018-11-07T01:35:00.248Z,99.99
2018-11-07T01:36:00.272Z,99.99
2018-11-07T01:37:00.282Z,99.99
2018-11-07T01:38:00.321Z,99.99
2018-11-07T01:39:00.078Z,99.99
2018-11-07T01:40:00.080Z,99.99
2018-11-07T01:41:00.378Z,99.99
2018-11-07T01:42:00.622Z,99.99
2018-11-07T01:43:00.411Z,99.99
2018-11-07T01:44:00.412Z,99.99
2018-11-07T01:45:00.446Z,99.99
2018-11-07T01:46:00.198Z,99.99
2018-11-07T01:47:00.489Z,99.99
2018-11-07T01:48:00.480Z,99.99
2018-11-07T01:49:00.508Z,99.99
2018-11-07T01:50:00.531Z,99.99
2018-11-07T01:51:00.553Z,99.99
2018-11-07T01:52:00.574Z,99.99
2018-11-07T01:53:00.314Z,99.99
2018-11-07T01:54:00.608Z,99.99
2018-11-07T01:55:00.611Z,99.99
2018-11-07T01:56:00.628Z,99.99
2018-11-07T01:57:00.661Z,99.99
2018-11-07T01:58:00.671Z,99.99
2018-11-07T01:59:00.677Z,99.99
2018-11-07T02:00:00.717Z,99.99
2018-11-07T02:01:00.715Z,99.99
2018-11-07T02:02:00.750Z,99.99
2018-11-07T02:03:15.409Z,99.99
2018-11-07T02:04:00.786Z,99.99
2018-11-07T02:05:00.788Z,99.99
2018-11-07T02:06:00.546Z,99.99
2018-11-07T02:07:00.836Z,99.99
2018-11-07T02:08:00.844Z,99.99
2018-11-07T02:09:00.613Z,99.99
2018-11-07T02:10:00.873Z,99.99
2018-11-07T02:11:00.648Z,99.99
2018-11-07T02:14:00.968Z,99.99
2018-11-07T02:15:00.969Z,99.99
2018-11-07T02:16:01.000Z,99.99
2018-11-07T02:17:01.002Z,99.99
2018-11-07T02:18:00.778Z,99.99
2018-11-07T02:19:15.699Z,99.99
2018-11-07T02:20:01.052Z,99.99
2018-11-07T02:21:01.088Z,99.99
2018-11-07T02:22:01.093Z,99.99
2018-11-07T02:23:01.124Z,99.99
2018-11-07T02:24:01.124Z,99.99
2018-11-07T02:25:01.160Z,99.99
2018-11-07T02:26:01.160Z,99.99
2018-11-07T02:27:01.199Z,99.99
2018-11-07T02:29:00.970Z,99.99
2018-11-07T02:31:01.256Z,99.99
2018-11-07T02:32:01.284Z,99.99
2018-11-07T02:33:01.306Z,99.99
2018-11-07T02:34:01.323Z,99.99
2018-11-07T02:35:15.982Z,99.99
2018-11-07T02:36:01.357Z,99.99
2018-11-07T02:37:01.565Z,99.99
2018-11-07T02:38:01.392Z,99.99
2018-11-07T02:39:01.394Z,99.99
2018-11-07T02:40:01.430Z,99.99
2018-11-07T02:41:01.428Z,99.99
2018-11-07T02:42:01.282Z,99.99
2018-11-07T02:43:01.466Z,99.99
2018-11-07T02:44:01.237Z,99.99
2018-11-07T02:47:01.535Z,99.99
2018-11-07T02:48:01.555Z,99.99
2018-11-07T02:49:01.590Z,99.99
2018-11-07T02:50:01.602Z,99.99
2018-11-07T02:51:16.269Z,99.99
2018-11-07T02:52:01.629Z,99.99
2018-11-07T02:53:01.713Z,99.99
2018-11-07T02:54:01.659Z,99.99
2018-11-07T02:55:01.689Z,99.99
2018-11-07T02:56:01.711Z,99.99
2018-11-07T02:57:01.713Z,99.99
2018-11-07T02:58:01.742Z,99.99
2018-11-07T03:00:01.787Z,99.99
2018-11-07T03:01:01.892Z,99.99
2018-11-07T03:02:01.802Z,99.99
2018-11-07T03:03:01.841Z,99.99
2018-11-07T03:04:01.837Z,99.99
2018-11-07T03:05:01.879Z,99.99
2018-11-07T03:06:16.533Z,99.99
2018-11-07T03:07:01.914Z,99.99
2018-11-07T03:09:01.923Z,99.99
2018-11-07T03:10:02.120Z,99.99
2018-11-07T03:11:01.962Z,99.99
2018-11-07T03:12:01.751Z,99.99
2018-11-07T03:13:02.004Z,99.99
2018-11-07T03:14:02.038Z,99.99
2018-11-07T03:15:02.052Z,99.99
2018-11-07T03:16:02.053Z,99.99
2018-11-07T03:17:02.084Z,99.99
2018-11-07T03:18:02.085Z,99.99
2018-11-07T03:19:02.120Z,99.99
2018-11-07T03:20:01.878Z,99.99
2018-11-07T03:21:02.154Z,99.99
2018-11-07T03:22:02.182Z,99.99
2018-11-07T03:23:02.173Z,99.99
2018-11-07T03:24:02.211Z,99.99
2018-11-07T03:25:02.228Z,99.99
2018-11-07T03:26:02.237Z,99.99
2018-11-07T03:27:02.000Z,99.99
2018-11-07T03:28:02.258Z,99.99
2018-11-07T03:29:02.039Z,99.99
2018-11-07T03:30:02.037Z,99.99
2018-11-07T03:31:02.355Z,99.99
2018-11-07T03:32:02.404Z,99.99
2018-11-07T03:33:02.367Z,99.99
2018-11-07T03:34:02.370Z,99.99
2018-11-07T03:35:02.138Z,99.99
2018-11-07T03:36:02.422Z,99.99
2018-11-07T03:37:02.436Z,99.99
2018-11-07T03:38:17.101Z,99.99
2018-11-07T03:39:02.464Z,99.99
2018-11-07T03:40:02.508Z,99.99
2018-11-07T03:41:02.488Z,99.99
2018-11-07T03:42:02.504Z,99.99
2018-11-07T03:44:02.545Z,99.99
2018-11-07T03:45:02.582Z,99.99
2018-11-07T03:46:02.579Z,99.99
2018-11-07T03:47:02.614Z,99.99
2018-11-07T03:48:02.610Z,99.99
2018-11-07T03:49:02.658Z,99.99
2018-11-07T03:50:02.672Z,99.99
2018-11-07T03:51:02.666Z,99.99
2018-11-07T03:52:02.695Z,99.99
2018-11-07T03:53:02.814Z,99.99
2018-11-07T03:54:17.376Z,99.99
2018-11-07T03:55:02.752Z,99.99
2018-11-07T03:56:02.775Z,99.99
2018-11-07T03:57:02.784Z,99.99
2018-11-07T03:58:02.785Z,99.99
2018-11-07T03:59:02.809Z,99.99
2018-11-07T04:00:02.853Z,99.99
2018-11-07T04:01:02.851Z,99.99
2018-11-07T04:02:02.610Z,99.99
2018-11-07T04:03:02.875Z,99.99
2018-11-07T04:04:02.647Z,99.99
2018-11-07T04:05:02.912Z,99.99
2018-11-07T04:06:02.944Z,99.99
2018-11-07T04:07:02.944Z,99.99
2018-11-07T04:08:02.979Z,99.99
2018-11-07T04:09:02.996Z,99.99
2018-11-07T04:10:17.665Z,99.99
2018-11-07T04:11:03.014Z,99.99
2018-11-07T04:12:03.030Z,99.99
2018-11-07T04:13:02.803Z,99.99
2018-11-07T04:14:03.082Z,99.99
2018-11-07T04:15:02.834Z,99.99
2018-11-07T04:16:03.120Z,99.99
2018-11-07T04:17:03.130Z,99.99
2018-11-07T04:18:03.155Z,99.99
2018-11-07T04:20:03.169Z,99.99
2018-11-07T04:22:02.946Z,99.99
2018-11-07T04:23:03.241Z,99.99
2018-11-07T04:24:02.987Z,99.99
2018-11-07T04:25:03.011Z,99.99
2018-11-07T04:26:17.940Z,99.99
2018-11-07T04:27:03.298Z,99.99
2018-11-07T04:28:03.329Z,99.99
2018-11-07T04:29:03.325Z,99.99
2018-11-07T04:30:03.368Z,99.99
2018-11-07T04:31:03.368Z,99.99
2018-11-07T04:32:03.398Z,99.99
2018-11-07T04:33:03.416Z,99.99
2018-11-07T04:35:03.454Z,99.99
2018-11-07T04:36:03.446Z,99.99
2018-11-07T04:37:03.486Z,99.99
2018-11-07T04:38:03.485Z,99.99
2018-11-07T04:40:03.534Z,99.99
2018-11-07T04:41:18.194Z,99.99
2018-11-07T04:42:03.577Z,99.99
2018-11-07T04:43:03.587Z,99.99
2018-11-07T04:44:03.587Z,99.99
2018-11-07T04:45:03.622Z,99.99
2018-11-07T04:46:03.620Z,99.99
2018-11-07T04:47:03.643Z,99.99
2018-11-07T04:48:03.706Z,99.99
2018-11-07T04:49:03.691Z,99.99
2018-11-07T04:50:03.710Z,99.99
2018-11-07T04:51:03.710Z,99.99
2018-11-07T04:52:03.746Z,99.99
2018-11-07T04:53:03.741Z,99.99
2018-11-07T04:54:03.514Z,99.99
2018-11-07T04:55:03.518Z,99.99
2018-11-07T04:56:03.811Z,99.99
2018-11-07T04:57:03.835Z,99.99
2018-11-07T04:58:03.830Z,99.99
2018-11-07T04:59:03.587Z,99.99
2018-11-07T05:01:03.903Z,99.99
2018-11-07T05:02:03.640Z,99.99
2018-11-07T05:03:03.943Z,99.99
2018-11-07T05:04:03.937Z,99.99
2018-11-07T05:05:03.706Z,99.99
2018-11-07T05:06:03.708Z,99.99
2018-11-07T05:08:04.023Z,99.99
2018-11-07T05:09:04.038Z,99.99
2018-11-07T05:10:04.043Z,99.99
2018-11-07T05:11:03.806Z,99.99
2018-11-07T05:12:03.809Z,99.99
2018-11-07T05:13:18.749Z,99.99
2018-11-07T05:14:04.117Z,99.99
2018-11-07T05:15:04.150Z,99.99
2018-11-07T05:18:04.192Z,99.99
2018-11-07T05:19:03.934Z,99.99
2018-11-07T05:20:04.224Z,99.99
2018-11-07T05:21:03.973Z,99.99
2018-11-07T05:22:03.995Z,99.99
2018-11-07T05:23:04.265Z,99.99
2018-11-07T05:24:04.277Z,99.99
2018-11-07T05:25:04.048Z,99.99
2018-11-07T05:26:04.134Z,99.99
2018-11-07T05:27:04.081Z,99.99
2018-11-07T05:28:04.358Z,99.99
2018-11-07T05:29:19.027Z,99.99
2018-11-07T05:30:04.124Z,99.99
2018-11-07T05:31:04.398Z,99.99
2018-11-07T05:32:04.657Z,99.99
2018-11-07T05:33:04.184Z,99.99
2018-11-07T05:34:04.201Z,99.99
2018-11-07T05:35:04.476Z,99.99
2018-11-07T05:36:04.239Z,99.99
2018-11-07T05:37:04.252Z,99.99
2018-11-07T05:38:04.259Z,99.99
2018-11-07T05:39:04.548Z,99.99
2018-11-07T05:40:04.557Z,99.99
2018-11-07T05:41:04.728Z,99.99
2018-11-07T05:42:04.328Z,99.99
2018-11-07T05:43:04.356Z,99.99
2018-11-07T05:44:04.471Z,99.99
2018-11-07T05:45:19.293Z,99.99
2018-11-07T05:46:04.666Z,99.99
2018-11-07T05:47:04.666Z,99.99
2018-11-07T05:48:04.433Z,99.99
2018-11-07T05:49:04.947Z,99.99
2018-11-07T05:50:04.476Z,99.99
2018-11-07T05:51:04.492Z,99.99
2018-11-07T05:52:04.757Z,99.99
2018-11-07T05:53:04.514Z,99.99
2018-11-07T05:54:04.528Z,99.99
2018-11-07T05:55:04.559Z,99.99
2018-11-07T05:57:04.864Z,99.99
2018-11-07T05:58:04.605Z,99.99
2018-11-07T05:59:04.628Z,99.99
2018-11-07T06:00:04.890Z,99.99
2018-11-07T06:01:19.565Z,99.99
2018-11-07T06:03:04.943Z,99.99
2018-11-07T06:04:04.975Z,99.99
2018-11-07T06:05:04.720Z,99.99
2018-11-07T06:07:05.057Z,99.99
2018-11-07T06:08:05.042Z,99.99
2018-11-07T06:09:05.046Z,99.99
2018-11-07T06:10:04.813Z,99.99
2018-11-07T06:11:04.817Z,99.99
2018-11-07T06:12:05.109Z,99.99
2018-11-07T06:13:05.107Z,99.99
2018-11-07T06:14:05.149Z,99.99
2018-11-07T06:15:05.157Z,99.99
2018-11-07T06:16:19.922Z,99.99
2018-11-07T06:17:05.181Z,99.99
2018-11-07T06:18:05.213Z,99.99
2018-11-07T06:19:05.211Z,99.99
2018-11-07T06:20:04.980Z,99.99
2018-11-07T06:21:04.988Z,99.99
2018-11-07T06:22:05.280Z,99.99
2018-11-07T06:23:05.075Z,99.99
2018-11-07T06:24:05.057Z,99.99
2018-11-07T06:27:05.364Z,99.99
2018-11-07T06:28:05.366Z,99.99
2018-11-07T06:29:05.402Z,99.99
2018-11-07T06:30:05.140Z,99.99
2018-11-07T06:31:05.168Z,99.99
2018-11-07T06:32:05.449Z,99.99
2018-11-07T06:33:05.450Z,99.99
2018-11-07T06:34:05.618Z,99.99
2018-11-07T06:35:05.503Z,99.99
2018-11-07T06:36:05.504Z,99.99
2018-11-07T06:37:05.531Z,99.99
2018-11-07T06:38:05.535Z,99.99
2018-11-07T06:39:05.569Z,99.99
2018-11-07T06:40:05.309Z,99.99
2018-11-07T06:41:05.607Z,99.99
2018-11-07T06:43:05.624Z,99.99
2018-11-07T06:44:05.640Z,99.99
2018-11-07T06:45:05.660Z,99.99
2018-11-07T06:46:05.696Z,99.99
2018-11-07T06:47:05.693Z,99.99
2018-11-07T06:48:20.371Z,99.99
2018-11-07T06:49:05.737Z,99.99
2018-11-07T06:51:05.755Z,99.99
2018-11-07T06:52:05.773Z,99.99
2018-11-07T06:53:05.810Z,99.99
2018-11-07T06:54:05.809Z,99.99
2018-11-07T06:55:05.634Z,99.99
2018-11-07T06:57:05.618Z,99.99
2018-11-07T06:59:05.913Z,99.99
2018-11-07T07:00:05.912Z,99.99
2018-11-07T07:01:05.947Z,99.99
2018-11-07T07:02:05.946Z,99.99
2018-11-07T07:03:05.969Z,99.99
2018-11-07T07:04:20.641Z,99.99
2018-11-07T07:05:06.018Z,99.99
2018-11-07T07:06:06.033Z,99.99
2018-11-07T07:07:06.042Z,99.99
2018-11-07T07:08:06.065Z,99.99
2018-11-07T07:09:06.067Z,99.99
2018-11-07T07:10:06.102Z,99.99
2018-11-07T07:11:05.894Z,99.99
2018-11-07T07:12:06.146Z,99.99
2018-11-07T07:13:06.141Z,99.99
2018-11-07T07:14:06.174Z,99.99
2018-11-07T07:15:06.175Z,99.99
2018-11-07T07:16:06.195Z,99.99
2018-11-07T07:17:06.310Z,99.99
2018-11-07T07:18:06.101Z,99.99
2018-11-07T07:19:06.266Z,99.99
2018-11-07T07:20:20.924Z,99.99
2018-11-07T07:21:06.298Z,99.99
2018-11-07T07:22:06.299Z,99.99
2018-11-07T07:23:06.319Z,99.99
2018-11-07T07:24:06.349Z,99.99
2018-11-07T07:25:06.097Z,99.99
2018-11-07T07:26:06.389Z,99.99
2018-11-07T07:27:06.409Z,99.99
2018-11-07T07:29:06.449Z,99.99
2018-11-07T07:30:06.816Z,99.99
2018-11-07T07:31:06.471Z,99.99
2018-11-07T07:32:06.226Z,99.99
2018-11-07T07:33:06.787Z,99.99
2018-11-07T07:34:06.542Z,99.99
2018-11-07T07:35:06.288Z,99.99
2018-11-07T07:36:21.223Z,99.99
2018-11-07T07:37:06.578Z,99.99
2018-11-07T07:38:06.618Z,99.99
2018-11-07T07:39:06.616Z,99.99
2018-11-07T07:40:06.636Z,99.99
2018-11-07T07:41:06.672Z,99.99
2018-11-07T07:43:06.711Z,99.99
2018-11-07T07:45:06.746Z,99.99
2018-11-07T07:46:06.749Z,99.99
2018-11-07T07:47:06.768Z,99.99
2018-11-07T07:48:06.801Z,99.99
2018-11-07T07:49:06.894Z,99.99
2018-11-07T07:50:06.894Z,99.99
2018-11-07T07:51:21.505Z,99.99
2018-11-07T07:52:06.883Z,99.99
2018-11-07T07:53:07.048Z,99.99
2018-11-07T07:54:06.923Z,99.99
2018-11-07T07:57:06.702Z,99.99
2018-11-07T07:58:06.983Z,99.99
2018-11-07T07:59:07.000Z,99.99
2018-11-07T08:00:06.773Z,99.99
2018-11-07T08:02:07.060Z,99.99
2018-11-07T08:03:07.096Z,99.99
2018-11-07T08:04:07.096Z,99.99
2018-11-07T08:05:07.136Z,99.99
2018-11-07T08:06:07.146Z,99.99
2018-11-07T08:07:07.500Z,99.99
2018-11-07T08:08:07.176Z,99.99
2018-11-07T08:09:07.221Z,99.99
2018-11-07T08:10:07.219Z,99.99
2018-11-07T08:11:07.259Z,99.99
2018-11-07T08:12:07.252Z,99.99
2018-11-07T08:13:07.293Z,99.99
2018-11-07T08:14:07.535Z,99.99
2018-11-07T08:15:07.053Z,99.99
2018-11-07T08:16:07.354Z,99.99
2018-11-07T08:17:07.359Z,99.99
2018-11-07T08:18:07.391Z,99.99
2018-11-07T08:19:07.394Z,99.99
2018-11-07T08:20:07.428Z,99.99
2018-11-07T08:21:07.259Z,99.99
2018-11-07T08:22:07.451Z,99.99
2018-11-07T08:23:22.136Z,99.99
2018-11-07T08:24:07.491Z,99.99
2018-11-07T08:25:07.260Z,99.99
2018-11-07T08:26:07.282Z,99.99
2018-11-07T08:27:07.573Z,99.99
2018-11-07T08:28:07.596Z,99.99
2018-11-07T08:29:07.360Z,99.99
2018-11-07T08:30:07.630Z,99.99
2018-11-07T08:31:07.635Z,99.99
2018-11-07T08:33:07.687Z,99.99
2018-11-07T08:34:07.447Z,99.99
2018-11-07T08:35:07.732Z,99.99
2018-11-07T08:36:07.477Z,99.99
2018-11-07T08:37:07.507Z,99.99
2018-11-07T08:38:07.773Z,99.99
2018-11-07T08:39:22.453Z,99.99
2018-11-07T08:40:07.829Z,99.99
2018-11-07T08:41:07.863Z,99.99
2018-11-07T08:42:07.952Z,99.99
2018-11-07T08:43:07.877Z,99.99
2018-11-07T08:44:07.914Z,99.99
2018-11-07T08:45:07.657Z,99.99
2018-11-07T08:46:07.945Z,99.99
2018-11-07T08:47:07.961Z,99.99
2018-11-07T08:48:08.093Z,99.99
2018-11-07T08:49:08.001Z,99.99
2018-11-07T08:50:07.772Z,99.99
2018-11-07T08:51:08.042Z,99.99
2018-11-07T08:52:08.079Z,99.99
2018-11-07T08:53:08.078Z,99.99
2018-11-07T08:54:08.125Z,99.99
2018-11-07T08:55:22.781Z,99.99
2018-11-07T08:56:07.883Z,99.99
2018-11-07T08:57:08.181Z,99.99
2018-11-07T08:58:08.188Z,99.99
2018-11-07T08:59:08.221Z,99.99
2018-11-07T09:00:07.979Z,99.99
2018-11-07T09:01:08.353Z,99.99
2018-11-07T09:02:08.393Z,99.99
2018-11-07T09:03:08.027Z,99.99
2018-11-07T09:04:08.320Z,99.99
2018-11-07T09:05:08.346Z,99.99
2018-11-07T09:06:08.105Z,99.99
2018-11-07T09:07:08.378Z,99.99
2018-11-07T09:08:08.147Z,99.99
2018-11-07T09:09:08.410Z,99.99
2018-11-07T09:10:08.185Z,99.99
2018-11-07T09:11:23.112Z,99.99
2018-11-07T09:12:08.690Z,99.99
2018-11-07T09:13:08.517Z,99.99
2018-11-07T09:14:08.530Z,99.99
2018-11-07T09:15:08.288Z,99.99
2018-11-07T09:17:08.583Z,99.99
2018-11-07T09:18:08.353Z,99.99
2018-11-07T09:19:08.361Z,99.99
2018-11-07T09:20:08.806Z,99.99
2018-11-07T09:21:08.664Z,99.99
2018-11-07T09:22:08.706Z,99.99
2018-11-07T09:24:08.724Z,99.99
2018-11-07T09:25:08.759Z,99.99
2018-11-07T09:26:23.428Z,99.99
2018-11-07T09:27:08.806Z,99.99
2018-11-07T09:28:08.809Z,99.99
2018-11-07T09:29:09.031Z,99.99
2018-11-07T09:30:08.866Z,99.99
2018-11-07T09:31:08.893Z,99.99
2018-11-07T09:32:08.635Z,99.99
2018-11-07T09:33:08.922Z,99.99
2018-11-07T09:34:08.949Z,99.99
2018-11-07T09:36:08.998Z,99.99
2018-11-07T09:37:09.056Z,99.99
2018-11-07T09:38:08.777Z,99.99
2018-11-07T09:39:09.043Z,99.99
2018-11-07T09:40:09.062Z,99.99
2018-11-07T09:41:09.103Z,99.99
2018-11-07T09:42:09.125Z,99.99
2018-11-07T09:43:09.130Z,99.99
2018-11-07T09:44:09.168Z,99.99
2018-11-07T09:45:09.174Z,99.99
2018-11-07T09:46:09.209Z,99.99
2018-11-07T09:47:09.235Z,99.99
2018-11-07T09:48:09.049Z,99.99
2018-11-07T09:49:09.256Z,99.99
2018-11-07T09:50:09.301Z,99.99
2018-11-07T09:51:09.301Z,99.99
2018-11-07T09:52:09.337Z,99.99
2018-11-07T09:54:09.470Z,99.99
2018-11-07T09:55:09.384Z,99.99
2018-11-07T09:56:09.424Z,99.99
2018-11-07T09:57:09.427Z,99.99
2018-11-07T09:58:24.113Z,99.99
2018-11-07T09:59:09.470Z,99.99
2018-11-07T10:00:09.237Z,99.99
2018-11-07T10:01:09.514Z,99.99
2018-11-07T10:02:09.552Z,99.99
2018-11-07T10:03:09.575Z,99.99
2018-11-07T10:04:09.590Z,99.99
2018-11-07T10:06:09.621Z,99.99
2018-11-07T10:07:09.642Z,99.99
2018-11-07T10:08:09.679Z,99.99
2018-11-07T10:09:09.690Z,99.99
2018-11-07T10:10:09.733Z,99.99
2018-11-07T10:11:09.745Z,99.99
2018-11-07T10:12:09.751Z,99.99
2018-11-07T10:13:09.788Z,99.99
2018-11-07T10:14:24.452Z,99.99
2018-11-07T10:15:09.843Z,99.99
2018-11-07T10:16:09.834Z,99.99
2018-11-07T10:17:09.859Z,99.99
2018-11-07T10:18:09.893Z,99.99
2018-11-07T10:19:09.653Z,99.99
2018-11-07T10:20:09.940Z,99.99
2018-11-07T10:21:09.942Z,99.99
2018-11-07T10:22:09.980Z,99.99
2018-11-07T10:24:10.013Z,99.99
2018-11-07T10:26:10.053Z,99.99
2018-11-07T10:27:09.994Z,99.99
2018-11-07T10:28:11.022Z,99.99
2018-11-07T10:29:10.780Z,99.99
2018-11-07T10:30:24.951Z,99.99
2018-11-07T10:31:10.170Z,99.99
2018-11-07T10:32:09.938Z,99.99
2018-11-07T10:33:10.047Z,99.99
2018-11-07T10:34:09.982Z,99.99
2018-11-07T10:35:10.243Z,99.99
2018-11-07T10:36:10.282Z,99.99
2018-11-07T10:37:10.287Z,99.99
2018-11-07T10:38:10.629Z,99.99
2018-11-07T10:39:10.351Z,99.99
2018-11-07T10:42:10.409Z,99.99
2018-11-07T10:43:10.412Z,99.99
2018-11-07T10:45:10.476Z,99.99
2018-11-07T10:46:25.140Z,99.99
2018-11-07T10:47:10.249Z,99.99
2018-11-07T10:48:10.262Z,99.99
2018-11-07T10:49:10.298Z,99.99
2018-11-07T10:50:10.571Z,99.99
2018-11-07T10:51:10.601Z,99.99
2018-11-07T10:52:10.626Z,99.99
2018-11-07T10:53:10.634Z,99.99
2018-11-07T10:54:10.651Z,99.99
2018-11-07T10:56:10.711Z,99.99
2018-11-07T10:57:10.456Z,99.99
2018-11-07T10:58:10.489Z,99.99
2018-11-07T10:59:10.755Z,99.99
2018-11-07T11:00:10.533Z,99.99
2018-11-07T11:01:25.462Z,99.99
2018-11-07T11:02:10.824Z,99.99
2018-11-07T11:03:10.863Z,99.99
2018-11-07T11:04:10.881Z,99.99
2018-11-07T11:05:11.141Z,99.99
2018-11-07T11:07:10.928Z,99.99
2018-11-07T11:08:10.988Z,99.99
2018-11-07T11:09:10.986Z,99.99
2018-11-07T11:10:11.011Z,99.96
2018-11-07T11:11:11.061Z,99.62
2018-11-07T11:12:11.037Z,99.72
2018-11-07T11:13:11.075Z,99.52
2018-11-07T11:14:11.089Z,99.33
2018-11-07T11:15:11.125Z,98.38
2018-11-07T11:16:11.141Z,99.05
2018-11-07T11:17:10.962Z,98.47
2018-11-07T11:18:11.164Z,98.28
2018-11-07T11:19:11.192Z,97.8
2018-11-07T11:20:11.222Z,97.33
2018-11-07T11:21:11.247Z,97.28
2018-11-07T11:22:11.270Z,96.89
2018-11-07T11:26:11.341Z,96.51
2018-11-07T11:27:11.121Z,96.03
2018-11-07T11:28:11.411Z,96.32
2018-11-07T11:29:11.422Z,96.22
2018-11-07T11:30:11.428Z,96.61
2018-11-07T11:31:11.461Z,96.27
2018-11-07T11:32:11.494Z,96.32
2018-11-07T11:33:26.153Z,96.89
2018-11-07T11:34:11.352Z,96.47
2018-11-07T11:35:12.118Z,96.7
2018-11-07T11:36:11.562Z,96.51
2018-11-07T11:37:11.578Z,96.32
2018-11-07T11:38:11.359Z,96.08
2018-11-07T11:39:11.378Z,96.22
2018-11-07T11:40:11.644Z,96.13
2018-11-07T11:41:11.631Z,95.65
2018-11-07T11:42:11.692Z,95.7
2018-11-07T11:43:11.730Z,95.84
2018-11-07T11:44:11.731Z,95.61
2018-11-07T11:45:11.772Z,96.03
2018-11-07T11:46:11.518Z,95.22
2018-11-07T11:47:11.823Z,95.27
2018-11-07T11:48:11.826Z,95.36
2018-11-07T11:49:26.502Z,95.56
2018-11-07T11:50:11.883Z,95.75
2018-11-07T11:51:11.701Z,95.84
2018-11-07T11:52:11.925Z,95.65
2018-11-07T11:53:11.928Z,95.36
2018-11-07T11:55:11.975Z,95.36
2018-11-07T11:56:11.992Z,94.69
2018-11-07T11:57:12.038Z,94.6
2018-11-07T11:58:12.058Z,94.5
2018-11-07T11:59:12.478Z,94.6
2018-11-07T12:00:13.186Z,95.07
2018-11-07T12:01:12.109Z,94.6
2018-11-07T12:03:12.147Z,94.6
2018-11-07T12:04:12.188Z,94.5
2018-11-07T12:05:26.851Z,95.07
2018-11-07T12:06:12.217Z,94.6
2018-11-07T12:07:12.250Z,94.69
2018-11-07T12:08:12.464Z,94.21
2018-11-07T12:10:12.300Z,94.02
2018-11-07T12:11:12.339Z,94.12
2018-11-07T12:12:12.467Z,94.31
2018-11-07T12:13:12.484Z,94.21
2018-11-07T12:14:12.390Z,94.31
2018-11-07T12:15:12.202Z,93.07
2018-11-07T12:16:12.449Z,93.45
2018-11-07T12:17:12.460Z,93.07
2018-11-07T12:18:12.479Z,93.54
2018-11-07T12:19:12.241Z,93.93
2018-11-07T12:20:12.545Z,93.3
2018-11-07T12:21:27.296Z,93.3
2018-11-07T12:22:12.588Z,93.11
2018-11-07T12:23:12.611Z,93.59
2018-11-07T12:24:12.612Z,93.59
2018-11-07T12:25:12.652Z,93.11
2018-11-07T12:26:12.670Z,92.82
2018-11-07T12:27:12.679Z,93.21
2018-11-07T12:28:12.715Z,92.63
2018-11-07T12:29:12.719Z,92.54
2018-11-07T12:30:12.761Z,92.92
2018-11-07T12:31:12.762Z,92.82
2018-11-07T12:33:12.832Z,93.11
2018-11-07T12:34:12.828Z,92.54
2018-11-07T12:35:12.868Z,92.82
2018-11-07T12:36:27.602Z,92.82
2018-11-07T12:37:12.900Z,92.73
2018-11-07T12:38:12.918Z,92.44
2018-11-07T12:39:12.694Z,93.02
2018-11-07T12:40:12.980Z,92.63
2018-11-07T12:41:12.983Z,92.25
2018-11-07T12:43:12.769Z,92.92
2018-11-07T12:44:12.791Z,92.92
2018-11-07T12:45:12.822Z,92.35
2018-11-07T12:46:13.096Z,92.25
2018-11-07T12:47:12.871Z,92.54
2018-11-07T12:48:12.881Z,92.15
2018-11-07T12:49:13.177Z,92.35
2018-11-07T12:50:13.700Z,92.15
2018-11-07T12:51:13.213Z,92.73
2018-11-07T12:52:13.230Z,92.54
2018-11-07T12:53:13.269Z,92.35
2018-11-07T12:54:13.018Z,92.63
2018-11-07T12:55:13.307Z,92.73
2018-11-07T12:56:13.333Z,92.63
2018-11-07T12:57:13.558Z,93.3
2018-11-07T12:58:13.299Z,92.54
2018-11-07T12:59:13.232Z,92.44
2018-11-07T13:01:13.443Z,92.78
2018-11-07T13:02:13.445Z,93.07
2018-11-07T13:03:13.487Z,92.97
2018-11-07T13:04:13.503Z,93.07
2018-11-07T13:05:13.530Z,93.21
2018-11-07T13:06:13.538Z,92.73
2018-11-07T13:07:13.297Z,92.92
2018-11-07T13:08:28.242Z,92.49
2018-11-07T13:09:13.607Z,92.87
2018-11-07T13:11:13.779Z,93.35
2018-11-07T13:12:13.689Z,93.07
2018-11-07T13:13:13.788Z,92.87
2018-11-07T13:14:13.713Z,93.16
2018-11-07T13:15:13.731Z,93.07
2018-11-07T13:16:13.771Z,93.45
2018-11-07T13:17:13.794Z,93.16
2018-11-07T13:20:13.843Z,93.45
2018-11-07T13:21:13.876Z,93.35
2018-11-07T13:22:14.053Z,93.35
2018-11-07T13:23:13.910Z,93.35
2018-11-07T13:24:28.589Z,93.07
2018-11-07T13:25:13.977Z,93.26
2018-11-07T13:26:13.976Z,93.74
2018-11-07T13:27:14.011Z,93.54
2018-11-07T13:29:14.058Z,93.64
2018-11-07T13:30:14.059Z,93.35
2018-11-07T13:31:13.827Z,94.02
2018-11-07T13:32:13.849Z,94.12
2018-11-07T13:33:14.145Z,94.02
2018-11-07T13:34:14.236Z,94.31
2018-11-07T13:35:13.919Z,94.12
2018-11-07T13:36:14.212Z,94.17
2018-11-07T13:37:14.736Z,94.21
2018-11-07T13:38:15.170Z,94.69
2018-11-07T13:39:15.511Z,94.55
2018-11-07T13:40:28.937Z,94.45
2018-11-07T13:41:14.302Z,94.55
2018-11-07T13:42:14.335Z,94.6
2018-11-07T13:43:14.357Z,94.79
2018-11-07T13:44:14.381Z,94.79
2018-11-07T13:45:14.433Z,94.6
2018-11-07T13:46:14.429Z,94.55
2018-11-07T13:48:14.474Z,95.12
2018-11-07T13:49:14.477Z,94.84
2018-11-07T13:50:14.499Z,95.22
2018-11-07T13:51:14.517Z,94.84
2018-11-07T13:52:14.556Z,95.22
2018-11-07T13:53:14.419Z,95.22
2018-11-07T13:54:14.604Z,95.22
2018-11-07T13:55:14.603Z,95.51
2018-11-07T13:56:29.291Z,95.7
2018-11-07T13:57:14.647Z,95.61
2018-11-07T13:58:14.414Z,96.08